createdAt,value
2017-11-03T00:00:31.082Z,61.65
2017-11-03T00:01:31.212Z,61.68
2017-11-03T00:02:31.144Z,62.16
2017-11-03T00:03:31.472Z,62.04
2017-11-03T00:04:31.200Z,61.97
2017-11-03T00:05:31.251Z,61.68
2017-11-03T00:06:31.265Z,62.07
2017-11-03T00:07:31.390Z,61.97
2017-11-03T00:08:31.333Z,61.94
2017-11-03T00:09:31.376Z,61.97
2017-11-03T00:10:31.638Z,62.07
2017-11-03T00:11:31.415Z,61.65
2017-11-03T00:12:31.445Z,61.97
2017-11-03T00:13:31.472Z,61.78
2017-11-03T00:14:31.504Z,61.97
2017-11-03T00:15:31.533Z,61.65
2017-11-03T00:16:31.570Z,61.97
2017-11-03T00:17:31.848Z,62.07
2017-11-03T00:18:31.630Z,62.07
2017-11-03T00:19:31.658Z,61.97
2017-11-03T00:20:31.696Z,62.07
2017-11-03T00:21:31.714Z,61.94
2017-11-03T00:22:31.743Z,61.68
2017-11-03T00:23:31.792Z,62.04
2017-11-03T00:24:32.105Z,61.68
2017-11-03T00:25:31.834Z,61.87
2017-11-03T00:26:31.861Z,61.68
2017-11-03T00:27:31.897Z,61.97
2017-11-03T00:28:31.923Z,61.68
2017-11-03T00:29:31.954Z,61.78
2017-11-03T00:30:31.986Z,61.68
2017-11-03T00:31:32.264Z,61.97
2017-11-03T00:32:32.050Z,61.68
2017-11-03T00:33:32.075Z,61.97
2017-11-03T00:34:32.103Z,61.68
2017-11-03T00:35:32.133Z,62.07
2017-11-03T00:36:32.163Z,61.49
2017-11-03T00:37:32.194Z,62.07
2017-11-03T00:38:32.478Z,61.68
2017-11-03T00:39:32.307Z,61.68
2017-11-03T00:40:32.284Z,62.04
2017-11-03T00:41:32.326Z,61.68
2017-11-03T00:42:32.359Z,62.07
2017-11-03T00:43:32.373Z,61.58
2017-11-03T00:44:32.405Z,61.68
2017-11-03T00:45:32.683Z,61.58
2017-11-03T00:46:32.466Z,61.68
2017-11-03T00:47:32.493Z,61.68
2017-11-03T00:48:32.523Z,61.49
2017-11-03T00:49:32.555Z,61.49
2017-11-03T00:50:32.594Z,61.49
2017-11-03T00:51:32.622Z,61.97
2017-11-03T00:52:32.895Z,61.49
2017-11-03T00:53:32.699Z,61.58
2017-11-03T00:54:32.711Z,62.07
2017-11-03T00:55:32.813Z,61.58
2017-11-03T00:56:32.767Z,61.55
2017-11-03T00:57:32.797Z,61.68
2017-11-03T00:58:33.116Z,61.97
2017-11-03T00:59:32.875Z,61.49
2017-11-03T01:00:32.885Z,61.68
2017-11-03T01:01:32.911Z,61.68
2017-11-03T01:02:32.952Z,61.46
2017-11-03T01:03:32.975Z,61.55
2017-11-03T01:04:33.339Z,61.58
2017-11-03T01:05:33.020Z,61.68
2017-11-03T01:06:33.047Z,61.68
2017-11-03T01:07:33.079Z,61.65
2017-11-03T01:08:33.126Z,61.68
2017-11-03T01:09:33.141Z,61.49
2017-11-03T01:10:33.489Z,61.58
2017-11-03T01:11:33.222Z,61.49
2017-11-03T01:12:33.233Z,61.68
2017-11-03T01:13:33.284Z,61.49
2017-11-03T01:14:33.315Z,61.46
2017-11-03T01:15:33.639Z,62.07
2017-11-03T01:16:33.670Z,61.49
2017-11-03T01:17:33.380Z,61.49
2017-11-03T01:18:33.428Z,61.49
2017-11-03T01:19:33.440Z,61.49
2017-11-03T01:20:33.494Z,61.68
2017-11-03T01:21:33.557Z,61.49
2017-11-03T01:22:33.853Z,61.49
2017-11-03T01:23:33.572Z,61.78
2017-11-03T01:24:33.604Z,61.46
2017-11-03T01:25:33.640Z,61.65
2017-11-03T01:26:33.668Z,61.78
2017-11-03T01:27:33.684Z,61.68
2017-11-03T01:28:34.110Z,61.78
2017-11-03T01:29:33.740Z,61.49
2017-11-03T01:30:33.791Z,61.68
2017-11-03T01:31:33.820Z,61.78
2017-11-03T01:32:33.832Z,61.68
2017-11-03T01:33:33.934Z,61.68
2017-11-03T01:34:34.163Z,61.68
2017-11-03T01:35:33.925Z,61.49
2017-11-03T01:36:33.973Z,61.78
2017-11-03T01:37:34.036Z,61.68
2017-11-03T01:38:34.088Z,61.78
2017-11-03T01:39:34.073Z,61.58
2017-11-03T01:40:34.423Z,61.78
2017-11-03T01:41:34.105Z,61.78
2017-11-03T01:42:34.161Z,61.75
2017-11-03T01:43:34.182Z,61.68
2017-11-03T01:44:34.195Z,61.49
2017-11-03T01:45:34.242Z,61.78
2017-11-03T01:46:34.576Z,61.58
2017-11-03T01:47:34.286Z,61.97
2017-11-03T01:48:34.336Z,61.78
2017-11-03T01:49:34.352Z,61.58
2017-11-03T01:50:34.468Z,61.49
2017-11-03T01:51:34.427Z,61.78
2017-11-03T01:52:34.708Z,61.78
2017-11-03T01:53:34.486Z,61.75
2017-11-03T01:54:34.505Z,61.78
2017-11-03T01:55:34.532Z,61.55
2017-11-03T01:56:34.574Z,61.78
2017-11-03T01:57:34.616Z,61.68
2017-11-03T01:58:34.890Z,61.49
2017-11-03T01:59:34.753Z,61.78
2017-11-03T02:00:34.692Z,61.78
2017-11-03T02:01:34.708Z,61.49
2017-11-03T02:02:34.735Z,61.68
2017-11-03T02:03:34.792Z,61.49
2017-11-03T02:04:35.048Z,61.49
2017-11-03T02:05:34.846Z,61.49
2017-11-03T02:06:34.974Z,61.68
2017-11-03T02:07:34.902Z,61.78
2017-11-03T02:08:34.935Z,61.78
2017-11-03T02:09:34.947Z,61.49
2017-11-03T02:10:35.248Z,61.65
2017-11-03T02:11:35.031Z,61.49
2017-11-03T02:12:35.138Z,61.78
2017-11-03T02:13:35.070Z,61.68
2017-11-03T02:14:35.119Z,61.78
2017-11-03T02:15:35.131Z,61.68
2017-11-03T02:16:35.160Z,61.49
2017-11-03T02:17:35.441Z,61.68
2017-11-03T02:18:35.229Z,61.78
2017-11-03T02:19:35.248Z,61.49
2017-11-03T02:20:35.287Z,61.68
2017-11-03T02:21:35.315Z,61.68
2017-11-03T02:22:35.338Z,61.78
2017-11-03T02:23:35.373Z,61.78
2017-11-03T02:24:35.722Z,61.46
2017-11-03T02:25:35.485Z,61.49
2017-11-03T02:26:35.469Z,61.55
2017-11-03T02:27:35.490Z,61.97
2017-11-03T02:28:35.534Z,61.49
2017-11-03T02:29:35.579Z,61.49
2017-11-03T02:30:35.587Z,61.46
2017-11-03T02:31:35.914Z,61.49
2017-11-03T02:32:35.709Z,61.68
2017-11-03T02:33:35.675Z,61.49
2017-11-03T02:34:35.709Z,61.97
2017-11-03T02:35:35.755Z,61.65
2017-11-03T02:36:35.769Z,61.55
2017-11-03T02:37:35.804Z,61.68
2017-11-03T02:38:36.123Z,61.58
2017-11-03T02:39:35.851Z,61.68
2017-11-03T02:40:35.888Z,61.49
2017-11-03T02:41:35.917Z,61.58
2017-11-03T02:42:35.982Z,61.49
2017-11-03T02:43:36.021Z,61.68
2017-11-03T02:44:36.006Z,61.68
2017-11-03T02:45:36.353Z,61.49
2017-11-03T02:46:36.065Z,61.97
2017-11-03T02:47:36.098Z,61.78
2017-11-03T02:48:36.122Z,61.78
2017-11-03T02:49:36.361Z,61.46
2017-11-03T02:50:36.196Z,61.49
2017-11-03T02:51:36.214Z,61.49
2017-11-03T02:52:36.552Z,61.49
2017-11-03T02:53:36.277Z,61.68
2017-11-03T02:54:36.306Z,61.49
2017-11-03T02:55:36.338Z,61.68
2017-11-03T02:56:36.381Z,61.46
2017-11-03T02:57:36.398Z,62.07
2017-11-03T02:58:36.447Z,61.49
2017-11-03T02:59:36.823Z,61.49
2017-11-03T03:00:36.503Z,61.49
2017-11-03T03:01:36.541Z,61.55
2017-11-03T03:02:36.572Z,61.68
2017-11-03T03:03:36.578Z,61.68
2017-11-03T03:04:36.605Z,62.07
2017-11-03T03:05:36.636Z,61.65
2017-11-03T03:06:36.914Z,61.65
2017-11-03T03:07:36.768Z,61.46
2017-11-03T03:08:36.765Z,61.49
2017-11-03T03:09:36.759Z,61.65
2017-11-03T03:10:36.785Z,61.46
2017-11-03T03:11:36.835Z,61.65
2017-11-03T03:12:36.886Z,61.97
2017-11-03T03:13:37.148Z,61.97
2017-11-03T03:14:37.258Z,61.55
2017-11-03T03:15:36.957Z,61.68
2017-11-03T03:16:36.983Z,61.97
2017-11-03T03:17:37.018Z,62.07
2017-11-03T03:18:37.068Z,61.65
2017-11-03T03:19:37.073Z,61.49
2017-11-03T03:20:37.336Z,61.68
2017-11-03T03:21:37.136Z,61.68
2017-11-03T03:22:37.164Z,61.68
2017-11-03T03:23:37.181Z,61.65
2017-11-03T03:24:37.227Z,61.68
2017-11-03T03:25:37.257Z,61.68
2017-11-03T03:26:37.267Z,61.46
2017-11-03T03:27:37.579Z,61.68
2017-11-03T03:28:37.328Z,61.94
2017-11-03T03:29:37.358Z,62.07
2017-11-03T03:30:37.429Z,62.04
2017-11-03T03:31:37.475Z,62.04
2017-11-03T03:32:37.475Z,61.78
2017-11-03T03:33:37.797Z,61.78
2017-11-03T03:34:37.512Z,62.07
2017-11-03T03:35:37.746Z,61.94
2017-11-03T03:36:37.588Z,61.97
2017-11-03T03:37:37.622Z,61.97
2017-11-03T03:38:37.662Z,61.65
2017-11-03T03:39:37.913Z,62.04
2017-11-03T03:40:37.698Z,62.07
2017-11-03T03:41:37.738Z,61.97
2017-11-03T03:42:37.753Z,61.97
2017-11-03T03:43:37.799Z,62.04
2017-11-03T03:44:37.808Z,61.97
2017-11-03T03:45:38.091Z,62.07
2017-11-03T03:46:37.977Z,61.97
2017-11-03T03:47:37.898Z,61.68
2017-11-03T03:48:37.934Z,62.07
2017-11-03T03:49:37.959Z,62.04
2017-11-03T03:50:38.030Z,61.97
2017-11-03T03:51:38.319Z,61.97
2017-11-03T03:52:38.085Z,62.07
2017-11-03T03:53:38.109Z,61.97
2017-11-03T03:54:38.330Z,62.04
2017-11-03T03:55:38.165Z,61.68
2017-11-03T03:56:38.168Z,62.07
2017-11-03T03:57:38.504Z,62.04
2017-11-03T03:58:38.248Z,61.97
2017-11-03T03:59:38.275Z,62.07
2017-11-03T04:00:38.328Z,61.94
2017-11-03T04:01:38.338Z,61.97
2017-11-03T04:02:38.354Z,62.07
2017-11-03T04:03:38.667Z,61.97
2017-11-03T04:04:38.553Z,61.68
2017-11-03T04:05:38.458Z,62.04
2017-11-03T04:06:38.510Z,61.75
2017-11-03T04:07:38.549Z,61.94
2017-11-03T04:08:38.534Z,61.94
2017-11-03T04:09:38.879Z,61.97
2017-11-03T04:10:38.648Z,61.68
2017-11-03T04:11:38.643Z,61.68
2017-11-03T04:12:38.656Z,62.07
2017-11-03T04:13:38.730Z,61.97
2017-11-03T04:15:38.995Z,61.78
2017-11-03T04:16:38.792Z,61.97
2017-11-03T04:17:38.827Z,61.97
2017-11-03T04:18:38.867Z,61.97
2017-11-03T04:19:38.862Z,62.07
2017-11-03T04:20:38.905Z,61.97
2017-11-03T04:21:39.458Z,61.94
2017-11-03T04:22:38.974Z,61.97
2017-11-03T04:23:39.001Z,62.07
2017-11-03T04:24:39.023Z,61.75
2017-11-03T04:25:39.069Z,61.97
2017-11-03T04:26:39.077Z,61.97
2017-11-03T04:27:39.421Z,61.97
2017-11-03T04:28:39.164Z,61.94
2017-11-03T04:29:39.165Z,61.94
2017-11-03T04:30:39.218Z,62.04
2017-11-03T04:31:39.226Z,61.68
2017-11-03T04:32:39.305Z,61.97
2017-11-03T04:33:39.564Z,62.04
2017-11-03T04:34:39.340Z,61.97
2017-11-03T04:35:39.345Z,61.97
2017-11-03T04:36:39.569Z,62.07
2017-11-03T04:37:39.423Z,61.75
2017-11-03T04:38:39.440Z,62.07
2017-11-03T04:39:39.742Z,61.75
2017-11-03T04:40:39.517Z,61.94
2017-11-03T04:41:39.529Z,62.04
2017-11-03T04:42:39.685Z,61.94
2017-11-03T04:43:39.600Z,61.97
2017-11-03T04:44:39.662Z,61.94
2017-11-03T04:45:39.647Z,62.07
2017-11-03T04:46:40.003Z,62.16
2017-11-03T04:47:39.723Z,61.97
2017-11-03T04:48:39.770Z,61.94
2017-11-03T04:49:39.769Z,62.07
2017-11-03T04:50:39.822Z,62.07
2017-11-03T04:51:39.836Z,61.65
2017-11-03T04:52:39.911Z,62.07
2017-11-03T04:53:40.157Z,61.97
2017-11-03T04:54:39.939Z,61.97
2017-11-03T04:55:40.083Z,62.07
2017-11-03T04:56:39.978Z,62.04
2017-11-03T04:57:40.018Z,61.97
2017-11-03T04:58:40.040Z,61.97
2017-11-03T04:59:40.068Z,62.04
2017-11-03T05:00:40.433Z,62.04
2017-11-03T05:01:40.144Z,61.94
2017-11-03T05:02:40.191Z,61.94
2017-11-03T05:03:40.188Z,61.94
2017-11-03T05:04:40.240Z,61.94
2017-11-03T05:05:40.255Z,61.97
2017-11-03T05:06:40.283Z,61.94
2017-11-03T05:07:40.619Z,62.04
2017-11-03T05:08:40.364Z,61.94
2017-11-03T05:09:40.589Z,61.97
2017-11-03T05:10:40.422Z,62.07
2017-11-03T05:11:40.448Z,62.07
2017-11-03T05:12:40.466Z,61.65
2017-11-03T05:13:40.559Z,62.07
2017-11-03T05:14:40.770Z,62.04
2017-11-03T05:15:40.653Z,62.04
2017-11-03T05:16:40.605Z,61.94
2017-11-03T05:17:40.635Z,61.75
2017-11-03T05:18:40.659Z,61.94
2017-11-03T05:19:40.696Z,61.94
2017-11-03T05:20:40.702Z,62.07
2017-11-03T05:21:41.103Z,61.94
2017-11-03T05:22:40.764Z,61.68
2017-11-03T05:23:40.818Z,61.75
2017-11-03T05:24:40.840Z,61.65
2017-11-03T05:25:40.909Z,61.68
2017-11-03T05:26:40.899Z,62.04
2017-11-03T05:27:40.929Z,62.07
2017-11-03T05:28:41.277Z,61.65
2017-11-03T05:29:40.991Z,62.07
2017-11-03T05:30:41.157Z,61.97
2017-11-03T05:31:41.074Z,61.97
2017-11-03T05:32:41.108Z,61.94
2017-11-03T05:33:41.109Z,62.07
2017-11-03T05:34:41.140Z,62.16
2017-11-03T05:35:41.457Z,61.97
2017-11-03T05:36:41.191Z,61.94
2017-11-03T05:37:41.229Z,62.04
2017-11-03T05:38:41.276Z,62.04
2017-11-03T05:39:41.302Z,61.75
2017-11-03T05:40:41.336Z,61.97
2017-11-03T05:41:41.336Z,62.04
2017-11-03T05:42:41.652Z,62.04
2017-11-03T05:43:41.457Z,62.07
2017-11-03T05:44:41.445Z,61.94
2017-11-03T05:45:41.482Z,61.97
2017-11-03T05:46:41.509Z,62.04
2017-11-03T05:47:41.565Z,62.04
2017-11-03T05:48:41.562Z,61.75
2017-11-03T05:49:41.893Z,62.04
2017-11-03T05:50:41.608Z,62.04
2017-11-03T05:51:41.636Z,61.94
2017-11-03T05:52:41.709Z,62.13
2017-11-03T05:53:41.712Z,62.04
2017-11-03T05:54:41.726Z,62.07
2017-11-03T05:55:41.777Z,61.97
2017-11-03T05:56:42.037Z,62.13
2017-11-03T05:57:41.818Z,62.04
2017-11-03T05:58:41.864Z,61.97
2017-11-03T05:59:41.945Z,62.04
2017-11-03T06:00:41.924Z,62.16
2017-11-03T06:01:41.938Z,62.04
2017-11-03T06:02:41.969Z,61.97
2017-11-03T06:03:42.302Z,61.94
2017-11-03T06:04:42.096Z,62.07
2017-11-03T06:05:42.094Z,61.94
2017-11-03T06:06:42.109Z,62.04
2017-11-03T06:07:42.138Z,62.13
2017-11-03T06:08:42.146Z,62.16
2017-11-03T06:09:42.528Z,62.16
2017-11-03T06:10:42.285Z,61.94
2017-11-03T06:11:42.257Z,61.97
2017-11-03T06:12:42.291Z,61.97
2017-11-03T06:13:42.362Z,62.07
2017-11-03T06:14:42.395Z,62.13
2017-11-03T06:15:42.778Z,62.16
2017-11-03T06:16:42.387Z,61.97
2017-11-03T06:17:42.451Z,62.13
2017-11-03T06:18:42.460Z,62.13
2017-11-03T06:19:42.480Z,62.07
2017-11-03T06:20:42.514Z,62.07
2017-11-03T06:21:42.855Z,61.97
2017-11-03T06:22:42.595Z,62.13
2017-11-03T06:23:42.619Z,61.97
2017-11-03T06:24:42.645Z,61.97
2017-11-03T06:25:42.657Z,62.04
2017-11-03T06:26:42.906Z,62.04
2017-11-03T06:27:43.036Z,61.97
2017-11-03T06:28:42.770Z,61.97
2017-11-03T06:29:42.818Z,62.07
2017-11-03T06:30:42.821Z,62.16
2017-11-03T06:31:42.922Z,61.75
2017-11-03T06:32:42.940Z,61.97
2017-11-03T06:33:43.199Z,61.94
2017-11-03T06:34:42.927Z,62.07
2017-11-03T06:35:42.978Z,61.97
2017-11-03T06:36:43.020Z,61.97
2017-11-03T06:37:43.036Z,61.68
2017-11-03T06:38:43.064Z,61.78
2017-11-03T06:39:43.384Z,62.07
2017-11-03T06:40:43.126Z,61.97
2017-11-03T06:41:43.151Z,61.97
2017-11-03T06:42:43.171Z,62.07
2017-11-03T06:43:43.218Z,62.07
2017-11-03T06:44:43.233Z,61.97
2017-11-03T06:45:43.529Z,61.97
2017-11-03T06:46:43.311Z,61.97
2017-11-03T06:47:43.336Z,61.68
2017-11-03T06:48:43.350Z,61.68
2017-11-03T06:49:43.400Z,62.07
2017-11-03T06:50:43.416Z,61.97
2017-11-03T06:51:43.759Z,61.97
2017-11-03T06:52:43.473Z,62.16
2017-11-03T06:53:43.519Z,61.94
2017-11-03T06:54:43.538Z,61.68
2017-11-03T06:55:43.562Z,61.97
2017-11-03T06:56:43.591Z,62.07
2017-11-03T06:57:43.890Z,62.07
2017-11-03T06:58:43.661Z,61.97
2017-11-03T06:59:43.700Z,61.68
2017-11-03T07:00:43.729Z,61.58
2017-11-03T07:01:43.743Z,61.68
2017-11-03T07:02:43.793Z,61.97
2017-11-03T07:03:44.071Z,61.49
2017-11-03T07:04:43.839Z,61.49
2017-11-03T07:05:43.915Z,61.58
2017-11-03T07:06:43.914Z,61.97
2017-11-03T07:07:43.939Z,61.78
2017-11-03T07:08:43.954Z,61.49
2017-11-03T07:09:44.234Z,61.49
2017-11-03T07:10:44.036Z,61.68
2017-11-03T07:11:44.118Z,61.78
2017-11-03T07:12:44.093Z,61.68
2017-11-03T07:13:44.110Z,61.68
2017-11-03T07:14:44.137Z,61.78
2017-11-03T07:15:44.413Z,61.49
2017-11-03T07:16:44.210Z,61.49
2017-11-03T07:17:44.294Z,61.20
2017-11-03T07:18:44.274Z,61.20
2017-11-03T07:19:44.292Z,61.30
2017-11-03T07:20:44.327Z,61.40
2017-11-03T07:21:44.346Z,61.40
2017-11-03T07:22:44.684Z,61.49
2017-11-03T07:23:44.404Z,61.40
2017-11-03T07:24:44.439Z,61.49
2017-11-03T07:25:44.484Z,61.40
2017-11-03T07:26:44.521Z,61.58
2017-11-03T07:27:44.550Z,61.30
2017-11-03T07:28:44.563Z,61.40
2017-11-03T07:29:45.080Z,61.49
2017-11-03T07:30:44.642Z,61.30
2017-11-03T07:31:44.656Z,61.49
2017-11-03T07:32:44.685Z,61.40
2017-11-03T07:33:44.712Z,61.49
2017-11-03T07:34:44.769Z,61.40
2017-11-03T07:35:44.886Z,61.30
2017-11-03T07:36:45.116Z,61.49
2017-11-03T07:37:44.853Z,61.49
2017-11-03T07:38:44.878Z,61.40
2017-11-03T07:39:44.933Z,61.49
2017-11-03T07:40:44.949Z,61.40
2017-11-03T07:41:44.967Z,61.40
2017-11-03T07:42:45.006Z,61.40
2017-11-03T07:43:45.276Z,61.49
2017-11-03T07:44:45.041Z,61.49
2017-11-03T07:45:45.084Z,61.58
2017-11-03T07:46:45.100Z,61.78
2017-11-03T07:47:45.162Z,61.68
2017-11-03T07:48:45.181Z,61.78
2017-11-03T07:49:45.210Z,61.49
2017-11-03T07:50:45.523Z,61.20
2017-11-03T07:51:45.251Z,61.68
2017-11-03T07:52:45.302Z,61.58
2017-11-03T07:53:45.322Z,61.58
2017-11-03T07:54:45.410Z,61.68
2017-11-03T07:55:45.377Z,61.40
2017-11-03T07:56:45.423Z,61.49
2017-11-03T07:57:45.707Z,61.40
2017-11-03T07:58:45.487Z,61.49
2017-11-03T07:59:45.492Z,61.30
2017-11-03T08:00:45.530Z,61.20
2017-11-03T08:01:45.554Z,61.20
2017-11-03T08:02:45.605Z,61.30
2017-11-03T08:03:45.617Z,61.20
2017-11-03T08:04:45.924Z,61.40
2017-11-03T08:05:45.745Z,61.20
2017-11-03T08:06:45.705Z,61.30
2017-11-03T08:07:45.781Z,61.20
2017-11-03T08:08:45.787Z,61.11
2017-11-03T08:09:45.818Z,61.30
2017-11-03T08:10:45.828Z,61.20
2017-11-03T08:11:46.179Z,61.20
2017-11-03T08:12:45.907Z,61.40
2017-11-03T08:13:45.996Z,61.40
2017-11-03T08:14:45.971Z,61.30
2017-11-03T08:15:46.012Z,61.30
2017-11-03T08:16:46.034Z,61.49
2017-11-03T08:17:46.046Z,61.68
2017-11-03T08:18:46.371Z,61.49
2017-11-03T08:19:46.106Z,61.11
2017-11-03T08:20:46.148Z,61.20
2017-11-03T08:21:46.164Z,61.40
2017-11-03T08:22:46.196Z,61.01
2017-11-03T08:23:46.292Z,61.11
2017-11-03T08:24:46.269Z,61.11
2017-11-03T08:25:46.585Z,61.11
2017-11-03T08:26:46.317Z,61.20
2017-11-03T08:27:46.371Z,61.20
2017-11-03T08:28:46.395Z,61.20
2017-11-03T08:29:46.408Z,61.20
2017-11-03T08:30:46.465Z,60.82
2017-11-03T08:31:46.474Z,60.82
2017-11-03T08:32:46.755Z,60.82
2017-11-03T08:33:46.544Z,60.91
2017-11-03T08:34:46.564Z,60.91
2017-11-03T08:35:46.592Z,60.72
2017-11-03T08:36:46.636Z,60.72
2017-11-03T08:37:46.666Z,61.01
2017-11-03T08:38:46.996Z,60.63
2017-11-03T08:39:46.734Z,60.53
2017-11-03T08:40:47.157Z,60.53
2017-11-03T08:41:46.784Z,60.43
2017-11-03T08:42:46.934Z,60.72
2017-11-03T08:43:46.839Z,60.82
2017-11-03T08:44:47.183Z,60.82
2017-11-03T08:45:46.941Z,60.72
2017-11-03T08:46:47.044Z,60.63
2017-11-03T08:47:46.954Z,60.63
2017-11-03T08:48:46.982Z,60.72
2017-11-03T08:49:47.053Z,60.53
2017-11-03T08:50:47.309Z,60.63
2017-11-03T08:51:47.072Z,60.82
2017-11-03T08:52:47.130Z,60.72
2017-11-03T08:53:47.158Z,60.56
2017-11-03T08:54:47.179Z,60.46
2017-11-03T08:55:47.229Z,60.34
2017-11-03T08:56:47.543Z,60.75
2017-11-03T08:57:47.262Z,60.24
2017-11-03T08:58:47.330Z,60.24
2017-11-03T08:59:47.322Z,60.14
2017-11-03T09:00:47.353Z,60.05
2017-11-03T09:01:47.402Z,60.14
2017-11-03T09:02:47.710Z,60.17
2017-11-03T09:03:47.479Z,60.24
2017-11-03T09:04:47.675Z,60.17
2017-11-03T09:05:47.511Z,60.05
2017-11-03T09:06:47.533Z,60.17
2017-11-03T09:07:47.564Z,59.99
2017-11-03T09:08:47.866Z,59.99
2017-11-03T09:09:47.629Z,60.17
2017-11-03T09:10:47.654Z,60.08
2017-11-03T09:11:47.697Z,60.27
2017-11-03T09:12:47.716Z,59.99
2017-11-03T09:13:47.748Z,60.08
2017-11-03T09:14:48.082Z,60.46
2017-11-03T09:15:47.827Z,60.37
2017-11-03T09:16:47.844Z,59.99
2017-11-03T09:17:47.888Z,59.79
2017-11-03T09:18:47.921Z,60.08
2017-11-03T09:19:47.931Z,59.79
2017-11-03T09:20:48.287Z,59.99
2017-11-03T09:21:47.995Z,59.99
2017-11-03T09:22:48.052Z,59.99
2017-11-03T09:23:48.070Z,59.50
2017-11-03T09:24:48.109Z,59.89
2017-11-03T09:25:48.120Z,59.79
2017-11-03T09:26:48.423Z,59.79
2017-11-03T09:27:48.183Z,59.79
2017-11-03T09:28:48.214Z,60.17
2017-11-03T09:29:48.294Z,60.08
2017-11-03T09:30:48.273Z,59.60
2017-11-03T09:31:48.323Z,59.60
2017-11-03T09:32:48.586Z,59.60
2017-11-03T09:33:48.367Z,59.79
2017-11-03T09:34:48.500Z,59.50
2017-11-03T09:35:48.430Z,59.69
2017-11-03T09:36:48.470Z,59.22
2017-11-03T09:37:48.487Z,59.22
2017-11-03T09:38:48.837Z,59.31
2017-11-03T09:39:48.551Z,59.31
2017-11-03T09:40:48.621Z,59.44
2017-11-03T09:41:48.631Z,59.31
2017-11-03T09:42:48.660Z,59.12
2017-11-03T09:43:48.682Z,59.31
2017-11-03T09:44:49.004Z,59.24
2017-11-03T09:45:48.754Z,59.44
2017-11-03T09:46:48.791Z,59.22
2017-11-03T09:47:48.807Z,59.44
2017-11-03T09:48:48.850Z,59.53
2017-11-03T09:49:48.973Z,58.95
2017-11-03T09:50:49.159Z,58.83
2017-11-03T09:51:48.945Z,58.95
2017-11-03T09:52:48.958Z,58.95
2017-11-03T09:53:49.002Z,58.57
2017-11-03T09:54:49.034Z,59.15
2017-11-03T09:55:49.050Z,58.76
2017-11-03T09:56:49.111Z,58.67
2017-11-03T09:57:49.425Z,58.76
2017-11-03T09:58:49.144Z,58.67
2017-11-03T09:59:49.178Z,58.76
2017-11-03T10:00:49.469Z,58.76
2017-11-03T10:01:49.239Z,58.47
2017-11-03T10:02:49.271Z,58.47
2017-11-03T10:03:49.302Z,58.57
2017-11-03T10:04:49.635Z,58.67
2017-11-03T10:05:49.376Z,58.57
2017-11-03T10:06:49.612Z,58.67
2017-11-03T10:07:49.425Z,58.67
2017-11-03T10:08:49.457Z,58.76
2017-11-03T10:09:49.541Z,58.57
2017-11-03T10:10:49.518Z,58.18
2017-11-03T10:11:49.871Z,58.28
2017-11-03T10:12:49.631Z,58.37
2017-11-03T10:13:49.610Z,58.57
2017-11-03T10:14:49.641Z,58.18
2017-11-03T10:15:49.698Z,58.18
2017-11-03T10:16:49.759Z,58.57
2017-11-03T10:17:49.761Z,58.57
2017-11-03T10:18:50.031Z,58.18
2017-11-03T10:19:49.792Z,58.37
2017-11-03T10:20:49.845Z,58.47
2017-11-03T10:21:49.857Z,58.18
2017-11-03T10:22:49.908Z,58.37
2017-11-03T10:23:49.947Z,58.18
2017-11-03T10:24:50.093Z,58.47
2017-11-03T10:25:50.252Z,58.57
2017-11-03T10:26:50.020Z,58.67
2017-11-03T10:27:50.050Z,58.47
2017-11-03T10:28:50.101Z,58.67
2017-11-03T10:29:50.111Z,58.47
2017-11-03T10:30:50.168Z,58.47
2017-11-03T10:31:50.387Z,58.67
2017-11-03T10:32:50.452Z,58.57
2017-11-03T10:33:50.484Z,58.67
2017-11-03T10:34:50.269Z,58.67
2017-11-03T10:35:50.320Z,58.47
2017-11-03T10:36:50.331Z,58.67
2017-11-03T10:37:50.378Z,58.18
2017-11-03T10:38:50.409Z,58.37
2017-11-03T10:39:50.779Z,57.99
2017-11-03T10:40:50.480Z,57.99
2017-11-03T10:41:50.499Z,57.90
2017-11-03T10:42:50.522Z,57.99
2017-11-03T10:43:50.569Z,57.90
2017-11-03T10:44:50.579Z,57.99
2017-11-03T10:45:50.626Z,57.80
2017-11-03T10:46:50.893Z,57.90
2017-11-03T10:47:50.690Z,57.99
2017-11-03T10:48:50.727Z,58.09
2017-11-03T10:49:50.737Z,58.18
2017-11-03T10:50:50.773Z,57.99
2017-11-03T10:51:50.834Z,58.18
2017-11-03T10:52:50.834Z,58.18
2017-11-03T10:53:51.160Z,58.28
2017-11-03T10:54:51.035Z,57.99
2017-11-03T10:55:50.969Z,58.18
2017-11-03T10:56:51.004Z,58.09
2017-11-03T10:57:51.077Z,58.18
2017-11-03T10:58:51.036Z,58.28
2017-11-03T10:59:51.076Z,58.18
2017-11-03T11:00:51.440Z,58.09
2017-11-03T11:01:51.136Z,58.09
2017-11-03T11:02:51.194Z,58.09
2017-11-03T11:03:51.193Z,57.90
2017-11-03T11:04:51.310Z,58.09
2017-11-03T11:05:51.388Z,58.09
2017-11-03T11:06:51.281Z,57.99
2017-11-03T11:07:51.601Z,57.90
2017-11-03T11:08:51.403Z,58.09
2017-11-03T11:09:51.408Z,58.18
2017-11-03T11:10:51.446Z,58.28
2017-11-03T11:11:51.466Z,58.09
2017-11-03T11:12:51.462Z,58.18
2017-11-03T11:13:51.788Z,58.37
2017-11-03T11:14:51.541Z,58.28
2017-11-03T11:15:51.609Z,58.28
2017-11-03T11:16:51.599Z,58.28
2017-11-03T11:17:51.632Z,58.37
2017-11-03T11:18:51.720Z,58.09
2017-11-03T11:19:51.978Z,58.09
2017-11-03T11:20:51.765Z,58.09
2017-11-03T11:21:51.755Z,58.31
2017-11-03T11:22:51.773Z,58.02
2017-11-03T11:23:51.802Z,57.70
2017-11-03T11:24:51.835Z,58.18
2017-11-03T11:25:52.185Z,58.18
2017-11-03T11:26:51.904Z,57.60
2017-11-03T11:27:51.926Z,57.70
2017-11-03T11:28:52.018Z,57.70
2017-11-03T11:29:52.015Z,57.51
2017-11-03T11:30:52.038Z,57.51
2017-11-03T11:31:52.370Z,57.35
2017-11-03T11:32:52.090Z,57.73
2017-11-03T11:33:52.118Z,57.35
2017-11-03T11:34:52.156Z,57.32
2017-11-03T11:35:52.248Z,57.60
2017-11-03T11:36:52.225Z,57.45
2017-11-03T11:37:52.561Z,57.32
2017-11-03T11:38:52.274Z,57.54
2017-11-03T11:39:52.307Z,57.25
2017-11-03T11:40:52.340Z,57.35
2017-11-03T11:41:52.383Z,57.54
2017-11-03T11:42:52.421Z,57.54
2017-11-03T11:43:52.756Z,57.45
2017-11-03T11:44:52.484Z,57.73
2017-11-03T11:45:52.709Z,57.73
2017-11-03T11:46:52.542Z,57.64
2017-11-03T11:47:52.585Z,57.73
2017-11-03T11:48:52.606Z,57.64
2017-11-03T11:49:52.628Z,57.64
2017-11-03T11:50:52.660Z,57.64
2017-11-03T11:51:52.731Z,56.96
2017-11-03T11:52:52.718Z,57.25
2017-11-03T11:53:52.770Z,57.73
2017-11-03T11:54:52.803Z,57.73
2017-11-03T11:55:53.091Z,57.54
2017-11-03T11:56:53.038Z,57.35
2017-11-03T11:57:52.881Z,56.87
2017-11-03T11:58:52.905Z,57.15
2017-11-03T11:59:52.930Z,56.87
2017-11-03T12:00:52.967Z,57.35
2017-11-03T12:01:53.316Z,57.15
2017-11-03T12:02:53.232Z,57.35
2017-11-03T12:03:53.079Z,57.15
2017-11-03T12:04:53.094Z,57.15
2017-11-03T12:05:53.127Z,57.15
2017-11-03T12:06:53.171Z,57.06
2017-11-03T12:07:53.454Z,57.83
2017-11-03T12:08:53.383Z,56.96
2017-11-03T12:09:53.276Z,57.15
2017-11-03T12:10:53.306Z,57.15
2017-11-03T12:11:53.324Z,57.35
2017-11-03T12:12:53.345Z,56.96
2017-11-03T12:13:53.797Z,57.45
2017-11-03T12:14:53.537Z,57.35
2017-11-03T12:15:53.454Z,57.15
2017-11-03T12:16:53.604Z,56.96
2017-11-03T12:17:53.599Z,57.15
2017-11-03T12:18:54.122Z,56.77
2017-11-03T12:19:53.589Z,56.87
2017-11-03T12:20:54.277Z,57.25
2017-11-03T12:21:53.668Z,56.87
2017-11-03T12:22:53.681Z,56.77
2017-11-03T12:23:53.700Z,56.67
2017-11-03T12:24:53.757Z,57.06
2017-11-03T12:25:53.868Z,57.15
2017-11-03T12:26:53.849Z,57.06
2017-11-03T12:27:54.068Z,56.96
2017-11-03T12:28:54.157Z,56.77
2017-11-03T12:29:53.897Z,57.15
2017-11-03T12:30:53.926Z,57.06
2017-11-03T12:31:53.946Z,56.96
2017-11-03T12:32:53.995Z,57.06
2017-11-03T12:33:54.027Z,56.96
2017-11-03T12:34:54.364Z,56.77
2017-11-03T12:35:54.109Z,56.96
2017-11-03T12:36:54.127Z,56.96
2017-11-03T12:37:54.138Z,56.96
2017-11-03T12:38:54.167Z,56.96
2017-11-03T12:39:54.225Z,56.96
2017-11-03T12:40:54.262Z,56.77
2017-11-03T12:41:54.669Z,57.25
2017-11-03T12:42:54.328Z,56.96
2017-11-03T12:43:54.360Z,56.96
2017-11-03T12:44:54.358Z,56.87
2017-11-03T12:45:54.390Z,56.58
2017-11-03T12:46:54.456Z,56.96
2017-11-03T12:47:54.484Z,56.87
2017-11-03T12:48:54.802Z,56.77
2017-11-03T12:49:54.547Z,56.67
2017-11-03T12:50:54.575Z,56.77
2017-11-03T12:51:54.585Z,56.96
2017-11-03T12:52:54.642Z,56.58
2017-11-03T12:53:54.677Z,56.96